Etusivu
METAR-TAF:

METAR-TAF

Lentoasemat :

Florești, Moldova

Leveyspiiri: 47-51-45N, Pituuspiiri: 028-12-45E, korkeus merenpinnasta: 101 m

METAR: puuttuu

Aika: 20:13 (17:13 UTC)

Sääennuste

Tämä raportti tehtiin 32 tuntia ja 53 minuuttia sitten, kello 08.20 UTC
Ennuste voimassa 28. päivästä klo 09 UTC - 28. päivään klo 18 UTC
Tuuli 12 kn pohjoisesta
Näkyvyys 10 km tai enemmän
Hajanaisia pilviä 3000 ft:n korkeudessa
Ajoittain
28. päivästä klo 09 UTC - 28. päivään klo 16 UTC
Tuuli 18 kn pohjoisesta puuskistuen 28 kn:hen
Näkyvyys: 4000 m
Hajonneita pilviä 1500 ft:n korkeudessa
Hajonneita pilviä 2000 ft:n korkeudessa, Cumulonimbus.
vesikuuroja

TAF: LUBM 280820Z 2809/2818 35012KT 9999 SCT030 TEMPO 2809/2816 36018G28KT 4000 SHRA BKN015 BKN020CB

Säähavainnot ja -ennusteet yli 4000 lentoasemalta (METAR- ja TAF-raportit).

Käytössä olevat sääasemat on merkitty karttaan keltaisilla ja punaisilla pisteillä.

Aseta hiiri pisteen päälle nähdäksesi sääaseman nimen.

Klikkaa sitten nähdäksesi säähavainnot ja -ennusteet.

Kartan vaihtaminen: klikkaa mustalla rastilla varustettuja vihreitä pisteitä, niin voit zoomata sisään; viivalla varustettua vihreää pistettä, niin voit zoomata ulos tai vihreitä nuolia, niin pääset viereisille kartoille.


METAR-TAF: